sensor_id;sensor_type;location;lat;lon;timestamp;temperature;humidity
26037;DHT22;13810;48.376;10.944;2023-04-05T00:00:22;-2.40;99.90
26037;DHT22;13810;48.376;10.944;2023-04-05T00:00:53;-2.40;99.90
26037;DHT22;13810;48.376;10.944;2023-04-05T00:01:24;-2.40;99.90
26037;DHT22;13810;48.376;10.944;2023-04-05T00:01:55;-2.40;99.90
26037;DHT22;13810;48.376;10.944;2023-04-05T00:02:26;-2.40;99.90
26037;DHT22;13810;48.376;10.944;2023-04-05T00:02:59;-2.30;99.90
26037;DHT22;13810;48.376;10.944;2023-04-05T00:03:29;-2.40;99.90
26037;DHT22;13810;48.376;10.944;2023-04-05T00:04:00;-2.30;99.90
26037;DHT22;13810;48.376;10.944;2023-04-05T00:04:31;-2.40;99.90
26037;DHT22;13810;48.376;10.944;2023-04-05T00:05:04;-2.30;99.90
26037;DHT22;13810;48.376;10.944;2023-04-05T00:05:35;-2.40;99.90
26037;DHT22;13810;48.376;10.944;2023-04-05T00:06:06;-2.40;99.90
26037;DHT22;13810;48.376;10.944;2023-04-05T00:06:37;-2.40;99.90
26037;DHT22;13810;48.376;10.944;2023-04-05T00:07:09;-2.40;99.90
26037;DHT22;13810;48.376;10.944;2023-04-05T00:07:41;-2.40;99.90
26037;DHT22;13810;48.376;10.944;2023-04-05T00:08:17;-2.40;99.90
26037;DHT22;13810;48.376;10.944;2023-04-05T00:08:53;-2.40;99.90
26037;DHT22;13810;48.376;10.944;2023-04-05T00:09:24;-2.40;99.90
26037;DHT22;13810;48.376;10.944;2023-04-05T00:09:55;-2.40;99.90
26037;DHT22;13810;48.376;10.944;2023-04-05T00:10:27;-2.40;99.90
26037;DHT22;13810;48.376;10.944;2023-04-05T00:10:57;-2.40;99.90
26037;DHT22;13810;48.376;10.944;2023-04-05T00:11:32;-2.40;99.90
26037;DHT22;13810;48.376;10.944;2023-04-05T00:12:03;-2.40;99.90
26037;DHT22;13810;48.376;10.944;2023-04-05T00:12:33;-2.40;99.90
26037;DHT22;13810;48.376;10.944;2023-04-05T00:13:04;-2.40;99.90
26037;DHT22;13810;48.376;10.944;2023-04-05T00:13:35;-2.40;99.90
26037;DHT22;13810;48.376;10.944;2023-04-05T00:14:06;-2.40;99.90
26037;DHT22;13810;48.376;10.944;2023-04-05T00:14:36;-2.40;99.90
26037;DHT22;13810;48.376;10.944;2023-04-05T00:15:07;-2.40;99.90
26037;DHT22;13810;48.376;10.944;2023-04-05T00:15:38;-2.40;99.90
26037;DHT22;13810;48.376;10.944;2023-04-05T00:16:08;-2.40;99.90
26037;DHT22;13810;48.376;10.944;2023-04-05T00:16:39;-2.40;99.90
26037;DHT22;13810;48.376;10.944;2023-04-05T00:17:10;-2.40;99.90
26037;DHT22;13810;48.376;10.944;2023-04-05T00:17:41;-2.30;99.90
26037;DHT22;13810;48.376;10.944;2023-04-05T00:18:12;-2.30;99.90
26037;DHT22;13810;48.376;10.944;2023-04-05T00:18:51;-2.30;99.90
26037;DHT22;13810;48.376;10.944;2023-04-05T00:19:21;-2.30;99.90
26037;DHT22;13810;48.376;10.944;2023-04-05T00:19:52;-2.30;99.90
26037;DHT22;13810;48.376;10.944;2023-04-05T00:20:26;-2.30;99.90
26037;DHT22;13810;48.376;10.944;2023-04-05T00:20:58;-2.30;99.90
26037;DHT22;13810;48.376;10.944;2023-04-05T00:21:29;-2.30;99.90
26037;DHT22;13810;48.376;10.944;2023-04-05T00:22:00;-2.30;99.90
26037;DHT22;13810;48.376;10.944;2023-04-05T00:22:30;-2.30;99.90
26037;DHT22;13810;48.376;10.944;2023-04-05T00:23:05;-2.30;99.90
26037;DHT22;13810;48.376;10.944;2023-04-05T00:23:36;-2.30;99.90
26037;DHT22;13810;48.376;10.944;2023-04-05T00:24:09;-2.30;99.90
26037;DHT22;13810;48.376;10.944;2023-04-05T00:24:44;-2.30;99.90
26037;DHT22;13810;48.376;10.944;2023-04-05T00:25:16;-2.30;99.90
26037;DHT22;13810;48.376;10.944;2023-04-05T00:25:47;-2.30;99.90
26037;DHT22;13810;48.376;10.944;2023-04-05T00:26:18;-2.30;99.90
26037;DHT22;13810;48.376;10.944;2023-04-05T00:26:49;-2.30;99.90
26037;DHT22;13810;48.376;10.944;2023-04-05T00:27:20;-2.30;99.90
26037;DHT22;13810;48.376;10.944;2023-04-05T00:27:51;-2.30;99.90
26037;DHT22;13810;48.376;10.944;2023-04-05T00:28:22;-2.30;99.90
26037;DHT22;13810;48.376;10.944;2023-04-05T00:28:52;-2.30;99.90
26037;DHT22;13810;48.376;10.944;2023-04-05T00:29:23;-2.30;99.90
26037;DHT22;13810;48.376;10.944;2023-04-05T00:29:54;-2.30;99.90
26037;DHT22;13810;48.376;10.944;2023-04-05T00:30:25;-2.30;99.90
26037;DHT22;13810;48.376;10.944;2023-04-05T00:30:58;-2.30;99.90
26037;DHT22;13810;48.376;10.944;2023-04-05T00:31:29;-2.30;99.90
26037;DHT22;13810;48.376;10.944;2023-04-05T00:31:59;-2.30;99.90
26037;DHT22;13810;48.376;10.944;2023-04-05T00:32:30;-2.30;99.90
26037;DHT22;13810;48.376;10.944;2023-04-05T00:33:01;-2.30;99.90
26037;DHT22;13810;48.376;10.944;2023-04-05T00:33:32;-2.30;99.90
26037;DHT22;13810;48.376;10.944;2023-04-05T00:34:02;-2.30;99.90
26037;DHT22;13810;48.376;10.944;2023-04-05T00:34:35;-2.30;99.90
26037;DHT22;13810;48.376;10.944;2023-04-05T00:35:06;-2.30;99.90
26037;DHT22;13810;48.376;10.944;2023-04-05T00:35:37;-2.30;99.90
26037;DHT22;13810;48.376;10.944;2023-04-05T00:36:18;-2.30;99.90
26037;DHT22;13810;48.376;10.944;2023-04-05T00:36:49;-2.30;99.90
26037;DHT22;13810;48.376;10.944;2023-04-05T00:37:20;-2.30;99.90
26037;DHT22;13810;48.376;10.944;2023-04-05T00:37:51;-2.30;99.90
26037;DHT22;13810;48.376;10.944;2023-04-05T00:38:22;-2.30;99.90
26037;DHT22;13810;48.376;10.944;2023-04-05T00:38:54;-2.20;99.90
26037;DHT22;13810;48.376;10.944;2023-04-05T00:39:24;-2.20;99.90
26037;DHT22;13810;48.376;10.944;2023-04-05T00:39:55;-2.20;99.90
26037;DHT22;13810;48.376;10.944;2023-04-05T00:40:26;-2.20;99.90
26037;DHT22;13810;48.376;10.944;2023-04-05T00:40:57;-2.30;99.90
26037;DHT22;13810;48.376;10.944;2023-04-05T00:41:28;-2.20;99.90
26037;DHT22;13810;48.376;10.944;2023-04-05T00:42:01;-2.20;99.90
26037;DHT22;13810;48.376;10.944;2023-04-05T00:42:33;-2.20;99.90
26037;DHT22;13810;48.376;10.944;2023-04-05T00:43:03;-2.20;99.90
26037;DHT22;13810;48.376;10.944;2023-04-05T00:43:34;-2.20;99.90
26037;DHT22;13810;48.376;10.944;2023-04-05T00:44:05;-2.30;99.90
26037;DHT22;13810;48.376;10.944;2023-04-05T00:44:37;-2.30;99.90
26037;DHT22;13810;48.376;10.944;2023-04-05T00:45:07;-2.30;99.90
26037;DHT22;13810;48.376;10.944;2023-04-05T00:45:38;-2.30;99.90
26037;DHT22;13810;48.376;10.944;2023-04-05T00:46:09;-2.30;99.90
26037;DHT22;13810;48.376;10.944;2023-04-05T00:46:40;-2.30;99.90
26037;DHT22;13810;48.376;10.944;2023-04-05T00:47:11;-2.30;99.90
26037;DHT22;13810;48.376;10.944;2023-04-05T00:47:42;-2.20;99.90
26037;DHT22;13810;48.376;10.944;2023-04-05T00:48:13;-2.30;99.90
26037;DHT22;13810;48.376;10.944;2023-04-05T00:48:44;-2.20;99.90
26037;DHT22;13810;48.376;10.944;2023-04-05T00:49:15;-2.20;99.90
26037;DHT22;13810;48.376;10.944;2023-04-05T00:49:46;-2.20;99.90
26037;DHT22;13810;48.376;10.944;2023-04-05T00:50:16;-2.20;99.90
26037;DHT22;13810;48.376;10.944;2023-04-05T00:50:48;-2.20;99.90
26037;DHT22;13810;48.376;10.944;2023-04-05T00:51:19;-2.20;99.90
26037;DHT22;13810;48.376;10.944;2023-04-05T00:51:50;-2.20;99.90
26037;DHT22;13810;48.376;10.944;2023-04-05T00:52:21;-2.20;99.90
26037;DHT22;13810;48.376;10.944;2023-04-05T00:52:52;-2.20;99.90
26037;DHT22;13810;48.376;10.944;2023-04-05T00:53:24;-2.20;99.90
26037;DHT22;13810;48.376;10.944;2023-04-05T00:53:56;-2.20;99.90
26037;DHT22;13810;48.376;10.944;2023-04-05T00:54:28;-2.20;99.90
26037;DHT22;13810;48.376;10.944;2023-04-05T00:55:01;-2.20;99.90
26037;DHT22;13810;48.376;10.944;2023-04-05T00:55:32;-2.20;99.90
26037;DHT22;13810;48.376;10.944;2023-04-05T00:56:04;-2.20;99.90
26037;DHT22;13810;48.376;10.944;2023-04-05T00:56:34;-2.20;99.90
26037;DHT22;13810;48.376;10.944;2023-04-05T00:57:06;-2.20;99.90
26037;DHT22;13810;48.376;10.944;2023-04-05T00:57:37;-2.30;99.90
26037;DHT22;13810;48.376;10.944;2023-04-05T00:58:11;-2.20;99.90
26037;DHT22;13810;48.376;10.944;2023-04-05T00:58:42;-2.20;99.90
26037;DHT22;13810;48.376;10.944;2023-04-05T00:59:13;-2.20;99.90
26037;DHT22;13810;48.376;10.944;2023-04-05T00:59:43;-2.30;99.90
26037;DHT22;13810;48.376;10.944;2023-04-05T01:00:14;-2.30;99.90
26037;DHT22;13810;48.376;10.944;2023-04-05T01:01:29;-2.30;99.90
26037;DHT22;13810;48.376;10.944;2023-04-05T01:02:10;-2.30;99.90
26037;DHT22;13810;48.376;10.944;2023-04-05T01:02:51;-2.30;99.90
26037;DHT22;13810;48.376;10.944;2023-04-05T01:03:25;-2.30;99.90
26037;DHT22;13810;48.376;10.944;2023-04-05T01:04:00;-2.30;99.90
26037;DHT22;13810;48.376;10.944;2023-04-05T01:04:33;-2.30;99.90
26037;DHT22;13810;48.376;10.944;2023-04-05T01:05:18;-2.30;99.90
26037;DHT22;13810;48.376;10.944;2023-04-05T01:06:08;-2.30;99.90
26037;DHT22;13810;48.376;10.944;2023-04-05T01:07:03;-2.40;99.90
26037;DHT22;13810;48.376;10.944;2023-04-05T01:08:20;-2.40;99.90
26037;DHT22;13810;48.376;10.944;2023-04-05T01:08:41;-2.40;99.90
26037;DHT22;13810;48.376;10.944;2023-04-05T01:09:43;-2.40;99.90
26037;DHT22;13810;48.376;10.944;2023-04-05T01:10:16;-2.40;99.90
26037;DHT22;13810;48.376;10.944;2023-04-05T01:10:59;-2.40;99.90
26037;DHT22;13810;48.376;10.944;2023-04-05T01:11:31;-2.40;99.90
26037;DHT22;13810;48.376;10.944;2023-04-05T01:12:05;-2.40;99.90
26037;DHT22;13810;48.376;10.944;2023-04-05T01:12:37;-2.40;99.90
26037;DHT22;13810;48.376;10.944;2023-04-05T01:13:08;-2.40;99.90
26037;DHT22;13810;48.376;10.944;2023-04-05T01:13:38;-2.40;99.90
26037;DHT22;13810;48.376;10.944;2023-04-05T01:14:09;-2.40;99.90
26037;DHT22;13810;48.376;10.944;2023-04-05T01:14:51;-2.40;99.90
26037;DHT22;13810;48.376;10.944;2023-04-05T01:15:22;-2.40;99.90
26037;DHT22;13810;48.376;10.944;2023-04-05T01:15:52;-2.40;99.90
26037;DHT22;13810;48.376;10.944;2023-04-05T01:16:23;-2.30;99.90
26037;DHT22;13810;48.376;10.944;2023-04-05T01:16:54;-2.30;99.90
26037;DHT22;13810;48.376;10.944;2023-04-05T01:17:29;-2.30;99.90
26037;DHT22;13810;48.376;10.944;2023-04-05T01:18:06;-2.40;99.90
26037;DHT22;13810;48.376;10.944;2023-04-05T01:18:40;-2.30;99.90
26037;DHT22;13810;48.376;10.944;2023-04-05T01:19:16;-2.30;99.90
26037;DHT22;13810;48.376;10.944;2023-04-05T01:19:49;-2.30;99.90
26037;DHT22;13810;48.376;10.944;2023-04-05T01:20:22;-2.30;99.90
26037;DHT22;13810;48.376;10.944;2023-04-05T01:24:50;-2.30;99.90
26037;DHT22;13810;48.376;10.944;2023-04-05T01:29:25;-2.30;99.90
26037;DHT22;13810;48.376;10.944;2023-04-05T01:30:19;-2.30;99.90
26037;DHT22;13810;48.376;10.944;2023-04-05T01:31:02;-2.30;99.90
26037;DHT22;13810;48.376;10.944;2023-04-05T01:31:42;-2.30;99.90
26037;DHT22;13810;48.376;10.944;2023-04-05T01:32:23;-2.30;99.90
26037;DHT22;13810;48.376;10.944;2023-04-05T01:35:21;-2.40;99.90
26037;DHT22;13810;48.376;10.944;2023-04-05T01:36:39;-2.40;99.90
26037;DHT22;13810;48.376;10.944;2023-04-05T01:37:15;-2.40;99.90
26037;DHT22;13810;48.376;10.944;2023-04-05T01:37:49;-2.40;99.90
26037;DHT22;13810;48.376;10.944;2023-04-05T01:38:24;-2.40;99.90
26037;DHT22;13810;48.376;10.944;2023-04-05T01:38:56;-2.40;99.90
26037;DHT22;13810;48.376;10.944;2023-04-05T01:39:27;-2.30;99.90
26037;DHT22;13810;48.376;10.944;2023-04-05T01:39:59;-2.30;99.90
26037;DHT22;13810;48.376;10.944;2023-04-05T01:40:31;-2.30;99.90
26037;DHT22;13810;48.376;10.944;2023-04-05T01:41:02;-2.30;99.90
26037;DHT22;13810;48.376;10.944;2023-04-05T01:41:33;-2.30;99.90
26037;DHT22;13810;48.376;10.944;2023-04-05T01:42:04;-2.30;99.90
26037;DHT22;13810;48.376;10.944;2023-04-05T01:42:35;-2.40;99.90
26037;DHT22;13810;48.376;10.944;2023-04-05T01:43:15;-2.40;99.90
26037;DHT22;13810;48.376;10.944;2023-04-05T01:43:46;-2.30;99.90
26037;DHT22;13810;48.376;10.944;2023-04-05T01:44:17;-2.40;99.90
26037;DHT22;13810;48.376;10.944;2023-04-05T01:44:47;-2.40;99.90
26037;DHT22;13810;48.376;10.944;2023-04-05T01:45:18;-2.40;99.90
26037;DHT22;13810;48.376;10.944;2023-04-05T01:45:49;-2.40;99.90
26037;DHT22;13810;48.376;10.944;2023-04-05T01:46:19;-2.40;99.90
26037;DHT22;13810;48.376;10.944;2023-04-05T01:46:50;-2.40;99.90
26037;DHT22;13810;48.376;10.944;2023-04-05T01:47:21;-2.30;99.90
26037;DHT22;13810;48.376;10.944;2023-04-05T01:47:52;-2.40;99.90
26037;DHT22;13810;48.376;10.944;2023-04-05T01:48:22;-2.40;99.90
26037;DHT22;13810;48.376;10.944;2023-04-05T01:48:53;-2.40;99.90
26037;DHT22;13810;48.376;10.944;2023-04-05T01:49:23;-2.40;99.90
26037;DHT22;13810;48.376;10.944;2023-04-05T01:49:54;-2.30;99.90
26037;DHT22;13810;48.376;10.944;2023-04-05T01:50:25;-2.40;99.90
26037;DHT22;13810;48.376;10.944;2023-04-05T01:50:55;-2.40;99.90
26037;DHT22;13810;48.376;10.944;2023-04-05T01:51:26;-2.40;99.90
26037;DHT22;13810;48.376;10.944;2023-04-05T01:51:57;-2.40;99.90
26037;DHT22;13810;48.376;10.944;2023-04-05T01:52:28;-2.40;99.90
26037;DHT22;13810;48.376;10.944;2023-04-05T01:52:58;-2.40;99.90
26037;DHT22;13810;48.376;10.944;2023-04-05T01:53:29;-2.30;99.90
26037;DHT22;13810;48.376;10.944;2023-04-05T01:54:00;-2.40;99.90
26037;DHT22;13810;48.376;10.944;2023-04-05T01:54:30;-2.40;99.90
26037;DHT22;13810;48.376;10.944;2023-04-05T01:55:01;-2.30;99.90
26037;DHT22;13810;48.376;10.944;2023-04-05T01:55:32;-2.30;99.90
26037;DHT22;13810;48.376;10.944;2023-04-05T01:56:03;-2.30;99.90
26037;DHT22;13810;48.376;10.944;2023-04-05T01:56:34;-2.30;99.90
26037;DHT22;13810;48.376;10.944;2023-04-05T01:57:05;-2.30;99.90
26037;DHT22;13810;48.376;10.944;2023-04-05T01:57:37;-2.30;99.90
26037;DHT22;13810;48.376;10.944;2023-04-05T01:58:08;-2.30;99.90
26037;DHT22;13810;48.376;10.944;2023-04-05T01:58:38;-2.30;99.90
26037;DHT22;13810;48.376;10.944;2023-04-05T01:59:09;-2.30;99.90
26037;DHT22;13810;48.376;10.944;2023-04-05T01:59:40;-2.30;99.90
26037;DHT22;13810;48.376;10.944;2023-04-05T02:00:11;-2.40;99.90
26037;DHT22;13810;48.376;10.944;2023-04-05T02:00:41;-2.40;99.90
26037;DHT22;13810;48.376;10.944;2023-04-05T02:01:12;-2.30;99.90
26037;DHT22;13810;48.376;10.944;2023-04-05T02:01:43;-2.40;99.90
26037;DHT22;13810;48.376;10.944;2023-04-05T02:02:13;-2.30;99.90
26037;DHT22;13810;48.376;10.944;2023-04-05T02:02:44;-2.30;99.90
26037;DHT22;13810;48.376;10.944;2023-04-05T02:03:14;-2.30;99.90
26037;DHT22;13810;48.376;10.944;2023-04-05T02:03:45;-2.30;99.90
26037;DHT22;13810;48.376;10.944;2023-04-05T02:04:16;-2.40;99.90
26037;DHT22;13810;48.376;10.944;2023-04-05T02:04:46;-2.40;99.90
26037;DHT22;13810;48.376;10.944;2023-04-05T02:05:17;-2.30;99.90
26037;DHT22;13810;48.376;10.944;2023-04-05T02:05:48;-2.30;99.90
26037;DHT22;13810;48.376;10.944;2023-04-05T02:06:18;-2.30;99.90
26037;DHT22;13810;48.376;10.944;2023-04-05T02:06:49;-2.30;99.90
26037;DHT22;13810;48.376;10.944;2023-04-05T02:07:20;-2.40;99.90
26037;DHT22;13810;48.376;10.944;2023-04-05T02:07:51;-2.40;99.90
26037;DHT22;13810;48.376;10.944;2023-04-05T02:08:21;-2.30;99.90
26037;DHT22;13810;48.376;10.944;2023-04-05T02:08:52;-2.30;99.90
26037;DHT22;13810;48.376;10.944;2023-04-05T02:09:22;-2.40;99.90
26037;DHT22;13810;48.376;10.944;2023-04-05T02:09:53;-2.40;99.90
26037;DHT22;13810;48.376;10.944;2023-04-05T02:10:24;-2.40;99.90
26037;DHT22;13810;48.376;10.944;2023-04-05T02:10:54;-2.40;99.90
26037;DHT22;13810;48.376;10.944;2023-04-05T02:11:25;-2.40;99.90
26037;DHT22;13810;48.376;10.944;2023-04-05T02:11:56;-2.40;99.90
26037;DHT22;13810;48.376;10.944;2023-04-05T02:12:26;-2.40;99.90
26037;DHT22;13810;48.376;10.944;2023-04-05T02:12:57;-2.40;99.90
26037;DHT22;13810;48.376;10.944;2023-04-05T02:13:27;-2.40;99.90
26037;DHT22;13810;48.376;10.944;2023-04-05T02:13:58;-2.40;99.90
26037;DHT22;13810;48.376;10.944;2023-04-05T02:14:29;-2.40;99.90
26037;DHT22;13810;48.376;10.944;2023-04-05T02:14:59;-2.40;99.90
26037;DHT22;13810;48.376;10.944;2023-04-05T02:15:30;-2.40;99.90
26037;DHT22;13810;48.376;10.944;2023-04-05T02:16:02;-2.40;99.90
26037;DHT22;13810;48.376;10.944;2023-04-05T02:16:32;-2.40;99.90
26037;DHT22;13810;48.376;10.944;2023-04-05T02:17:03;-2.40;99.90
26037;DHT22;13810;48.376;10.944;2023-04-05T02:17:34;-2.40;99.90
26037;DHT22;13810;48.376;10.944;2023-04-05T02:18:08;-2.40;99.90
26037;DHT22;13810;48.376;10.944;2023-04-05T02:18:40;-2.40;99.90
26037;DHT22;13810;48.376;10.944;2023-04-05T02:19:10;-2.40;99.90
26037;DHT22;13810;48.376;10.944;2023-04-05T02:19:42;-2.40;99.90
26037;DHT22;13810;48.376;10.944;2023-04-05T02:20:15;-2.40;99.90
26037;DHT22;13810;48.376;10.944;2023-04-05T02:20:49;-2.40;99.90
26037;DHT22;13810;48.376;10.944;2023-04-05T02:21:20;-2.40;99.90
26037;DHT22;13810;48.376;10.944;2023-04-05T02:21:51;-2.40;99.90
26037;DHT22;13810;48.376;10.944;2023-04-05T02:22:25;-2.40;99.90
26037;DHT22;13810;48.376;10.944;2023-04-05T02:22:56;-2.40;99.90
26037;DHT22;13810;48.376;10.944;2023-04-05T02:23:27;-2.40;99.90
26037;DHT22;13810;48.376;10.944;2023-04-05T02:23:59;-2.40;99.90
26037;DHT22;13810;48.376;10.944;2023-04-05T02:24:30;-2.40;99.90
26037;DHT22;13810;48.376;10.944;2023-04-05T02:25:01;-2.50;99.90
26037;DHT22;13810;48.376;10.944;2023-04-05T02:25:33;-2.40;99.90
26037;DHT22;13810;48.376;10.944;2023-04-05T02:26:04;-2.50;99.90
26037;DHT22;13810;48.376;10.944;2023-04-05T02:26:34;-2.40;99.90
26037;DHT22;13810;48.376;10.944;2023-04-05T02:27:05;-2.50;99.90
26037;DHT22;13810;48.376;10.944;2023-04-05T02:27:37;-2.40;99.90
26037;DHT22;13810;48.376;10.944;2023-04-05T02:28:07;-2.40;99.90
26037;DHT22;13810;48.376;10.944;2023-04-05T02:28:38;-2.50;99.90
26037;DHT22;13810;48.376;10.944;2023-04-05T02:29:08;-2.40;99.90
26037;DHT22;13810;48.376;10.944;2023-04-05T02:29:39;-2.50;99.90
26037;DHT22;13810;48.376;10.944;2023-04-05T02:30:10;-2.50;99.90
26037;DHT22;13810;48.376;10.944;2023-04-05T02:30:43;-2.50;99.90
26037;DHT22;13810;48.376;10.944;2023-04-05T02:31:13;-2.50;99.90
26037;DHT22;13810;48.376;10.944;2023-04-05T02:31:44;-2.50;99.90
26037;DHT22;13810;48.376;10.944;2023-04-05T02:32:15;-2.50;99.90
26037;DHT22;13810;48.376;10.944;2023-04-05T02:32:45;-2.50;99.90
26037;DHT22;13810;48.376;10.944;2023-04-05T02:33:16;-2.60;99.90
26037;DHT22;13810;48.376;10.944;2023-04-05T02:33:47;-2.60;99.90
26037;DHT22;13810;48.376;10.944;2023-04-05T02:34:18;-2.50;99.90
26037;DHT22;13810;48.376;10.944;2023-04-05T02:34:49;-2.60;99.90
26037;DHT22;13810;48.376;10.944;2023-04-05T02:35:20;-2.50;99.90
26037;DHT22;13810;48.376;10.944;2023-04-05T02:35:52;-2.60;99.90
26037;DHT22;13810;48.376;10.944;2023-04-05T02:36:23;-2.60;99.90
26037;DHT22;13810;48.376;10.944;2023-04-05T02:36:53;-2.60;99.90
26037;DHT22;13810;48.376;10.944;2023-04-05T02:37:24;-2.60;99.90
26037;DHT22;13810;48.376;10.944;2023-04-05T02:37:56;-2.60;99.90
26037;DHT22;13810;48.376;10.944;2023-04-05T02:38:27;-2.60;99.90
26037;DHT22;13810;48.376;10.944;2023-04-05T02:38:57;-2.60;99.90
26037;DHT22;13810;48.376;10.944;2023-04-05T02:39:28;-2.70;99.90
26037;DHT22;13810;48.376;10.944;2023-04-05T02:39:59;-2.70;99.90
26037;DHT22;13810;48.376;10.944;2023-04-05T02:40:30;-2.70;99.90
26037;DHT22;13810;48.376;10.944;2023-04-05T02:41:00;-2.70;99.90
26037;DHT22;13810;48.376;10.944;2023-04-05T02:41:31;-2.80;99.90
26037;DHT22;13810;48.376;10.944;2023-04-05T02:42:02;-2.80;99.90
26037;DHT22;13810;48.376;10.944;2023-04-05T02:42:32;-2.80;99.90
26037;DHT22;13810;48.376;10.944;2023-04-05T02:43:03;-2.80;99.90
26037;DHT22;13810;48.376;10.944;2023-04-05T02:43:33;-2.80;99.90
26037;DHT22;13810;48.376;10.944;2023-04-05T02:44:04;-2.80;99.90
26037;DHT22;13810;48.376;10.944;2023-04-05T02:44:35;-2.90;99.90
26037;DHT22;13810;48.376;10.944;2023-04-05T02:45:06;-2.90;99.90
26037;DHT22;13810;48.376;10.944;2023-04-05T02:45:37;-2.90;99.90
26037;DHT22;13810;48.376;10.944;2023-04-05T02:46:08;-2.90;99.90
26037;DHT22;13810;48.376;10.944;2023-04-05T02:46:39;-2.90;99.90
26037;DHT22;13810;48.376;10.944;2023-04-05T02:47:10;-2.90;99.90
26037;DHT22;13810;48.376;10.944;2023-04-05T02:47:40;-2.90;99.90
26037;DHT22;13810;48.376;10.944;2023-04-05T02:48:11;-2.90;99.90
26037;DHT22;13810;48.376;10.944;2023-04-05T02:48:41;-2.90;99.90
26037;DHT22;13810;48.376;10.944;2023-04-05T02:49:12;-3.00;99.90
26037;DHT22;13810;48.376;10.944;2023-04-05T02:49:43;-3.00;99.90
26037;DHT22;13810;48.376;10.944;2023-04-05T02:50:14;-3.00;99.90
26037;DHT22;13810;48.376;10.944;2023-04-05T02:50:50;-3.00;99.90
26037;DHT22;13810;48.376;10.944;2023-04-05T02:51:21;-3.00;99.90
26037;DHT22;13810;48.376;10.944;2023-04-05T02:51:51;-3.00;99.90
26037;DHT22;13810;48.376;10.944;2023-04-05T02:52:22;-3.00;99.90
26037;DHT22;13810;48.376;10.944;2023-04-05T02:52:53;-3.00;99.90
26037;DHT22;13810;48.376;10.944;2023-04-05T02:53:23;-3.00;99.90
26037;DHT22;13810;48.376;10.944;2023-04-05T02:53:54;-3.10;99.90
26037;DHT22;13810;48.376;10.944;2023-04-05T02:54:24;-3.10;99.90
26037;DHT22;13810;48.376;10.944;2023-04-05T02:54:55;-3.10;99.90
26037;DHT22;13810;48.376;10.944;2023-04-05T02:55:26;-3.10;99.90
26037;DHT22;13810;48.376;10.944;2023-04-05T02:55:58;-3.10;99.90
26037;DHT22;13810;48.376;10.944;2023-04-05T02:56:29;-3.10;99.90
26037;DHT22;13810;48.376;10.944;2023-04-05T02:57:00;-3.20;99.90
26037;DHT22;13810;48.376;10.944;2023-04-05T02:57:31;-3.20;99.90
26037;DHT22;13810;48.376;10.944;2023-04-05T02:58:02;-3.20;99.90
26037;DHT22;13810;48.376;10.944;2023-04-05T02:58:33;-3.20;99.90
26037;DHT22;13810;48.376;10.944;2023-04-05T02:59:03;-3.20;99.90
26037;DHT22;13810;48.376;10.944;2023-04-05T02:59:34;-3.20;99.90
26037;DHT22;13810;48.376;10.944;2023-04-05T03:00:06;-3.30;99.90
26037;DHT22;13810;48.376;10.944;2023-04-05T03:00:37;-3.30;99.90
26037;DHT22;13810;48.376;10.944;2023-04-05T03:01:08;-3.30;99.90
26037;DHT22;13810;48.376;10.944;2023-04-05T03:01:39;-3.30;99.90
26037;DHT22;13810;48.376;10.944;2023-04-05T03:02:13;-3.40;99.90
26037;DHT22;13810;48.376;10.944;2023-04-05T03:02:44;-3.40;99.90
26037;DHT22;13810;48.376;10.944;2023-04-05T03:03:14;-3.40;99.90
26037;DHT22;13810;48.376;10.944;2023-04-05T03:03:45;-3.40;99.90
26037;DHT22;13810;48.376;10.944;2023-04-05T03:04:16;-3.50;99.90
26037;DHT22;13810;48.376;10.944;2023-04-05T03:04:47;-3.40;99.90
26037;DHT22;13810;48.376;10.944;2023-04-05T03:05:17;-3.40;99.90
26037;DHT22;13810;48.376;10.944;2023-04-05T03:05:58;-3.50;99.90
26037;DHT22;13810;48.376;10.944;2023-04-05T03:06:30;-3.50;99.90
26037;DHT22;13810;48.376;10.944;2023-04-05T03:07:02;-3.50;99.90
26037;DHT22;13810;48.376;10.944;2023-04-05T03:07:34;-3.50;99.90
26037;DHT22;13810;48.376;10.944;2023-04-05T03:08:05;-3.40;99.90
26037;DHT22;13810;48.376;10.944;2023-04-05T03:08:37;-3.40;99.90
26037;DHT22;13810;48.376;10.944;2023-04-05T03:09:08;-3.40;99.90
26037;DHT22;13810;48.376;10.944;2023-04-05T03:09:39;-3.40;99.90
26037;DHT22;13810;48.376;10.944;2023-04-05T03:10:09;-3.40;99.90
26037;DHT22;13810;48.376;10.944;2023-04-05T03:10:40;-3.40;99.90
26037;DHT22;13810;48.376;10.944;2023-04-05T03:11:14;-3.40;99.90
26037;DHT22;13810;48.376;10.944;2023-04-05T03:11:45;-3.40;99.90
26037;DHT22;13810;48.376;10.944;2023-04-05T03:12:15;-3.40;99.90
26037;DHT22;13810;48.376;10.944;2023-04-05T03:12:46;-3.40;99.90
26037;DHT22;13810;48.376;10.944;2023-04-05T03:13:17;-3.40;99.90
26037;DHT22;13810;48.376;10.944;2023-04-05T03:13:47;-3.40;99.90
26037;DHT22;13810;48.376;10.944;2023-04-05T03:14:18;-3.40;99.90
26037;DHT22;13810;48.376;10.944;2023-04-05T03:14:49;-3.40;99.90
26037;DHT22;13810;48.376;10.944;2023-04-05T03:15:19;-3.40;99.90
26037;DHT22;13810;48.376;10.944;2023-04-05T03:15:53;-3.40;99.90
26037;DHT22;13810;48.376;10.944;2023-04-05T03:16:24;-3.40;99.90
26037;DHT22;13810;48.376;10.944;2023-04-05T03:16:55;-3.40;99.90
26037;DHT22;13810;48.376;10.944;2023-04-05T03:17:25;-3.40;99.90
26037;DHT22;13810;48.376;10.944;2023-04-05T03:17:56;-3.40;99.90
26037;DHT22;13810;48.376;10.944;2023-04-05T03:18:27;-3.40;99.90
26037;DHT22;13810;48.376;10.944;2023-04-05T03:18:59;-3.40;99.90
26037;DHT22;13810;48.376;10.944;2023-04-05T03:19:29;-3.40;99.90
26037;DHT22;13810;48.376;10.944;2023-04-05T03:20:00;-3.40;99.90
26037;DHT22;13810;48.376;10.944;2023-04-05T03:20:35;-3.40;99.90
26037;DHT22;13810;48.376;10.944;2023-04-05T03:21:09;-3.40;99.90
26037;DHT22;13810;48.376;10.944;2023-04-05T03:21:41;-3.40;99.90
26037;DHT22;13810;48.376;10.944;2023-04-05T03:22:11;-3.40;99.90
26037;DHT22;13810;48.376;10.944;2023-04-05T03:22:42;-3.40;99.90
26037;DHT22;13810;48.376;10.944;2023-04-05T03:23:13;-3.40;99.90
26037;DHT22;13810;48.376;10.944;2023-04-05T03:23:43;-3.40;99.90
26037;DHT22;13810;48.376;10.944;2023-04-05T03:24:18;-3.40;99.90
26037;DHT22;13810;48.376;10.944;2023-04-05T03:24:48;-3.40;99.90
26037;DHT22;13810;48.376;10.944;2023-04-05T03:25:19;-3.50;99.90
26037;DHT22;13810;48.376;10.944;2023-04-05T03:25:49;-3.40;99.90
26037;DHT22;13810;48.376;10.944;2023-04-05T03:26:22;-3.50;99.90
26037;DHT22;13810;48.376;10.944;2023-04-05T03:26:53;-3.50;99.90
26037;DHT22;13810;48.376;10.944;2023-04-05T03:27:27;-3.50;99.90
26037;DHT22;13810;48.376;10.944;2023-04-05T03:27:58;-3.50;99.90
26037;DHT22;13810;48.376;10.944;2023-04-05T03:28:30;-3.50;99.90
26037;DHT22;13810;48.376;10.944;2023-04-05T03:29:01;-3.50;99.90
26037;DHT22;13810;48.376;10.944;2023-04-05T03:29:32;-3.50;99.90
26037;DHT22;13810;48.376;10.944;2023-04-05T03:30:03;-3.40;99.90
26037;DHT22;13810;48.376;10.944;2023-04-05T03:30:34;-3.50;99.90